Terminal Aerodrome Forecast
Issued by NWS Binghamton, NY

Home | Current Version | Previous Version | Text Only | Print | Product List | Glossary On
Versions: 1 2 3 4 5 6 7 8 9 10 11 12 13 14 15 16 17
000
FTUS41 KBGM 042340
TAFAVP
TAF
KAVP 042340Z 0500/0524 23004KT P6SM OVC100
     FM050700 28003KT P6SM OVC080
     FM051200 34004KT P6SM OVC080
     FM051500 34004KT P6SM -SHRA OVC060=

USA.gov is the U.S. government's official web portal to all federal, state and local government web resources and services.